sensor_id;sensor_type;location;lat;lon;timestamp;pressure;altitude;pressure_sealevel;temperature;humidity
43711;BME280;29309;42.682;23.372;2023-03-16T00:01:59;94340.66;;;3.92;83.27
43711;BME280;29309;42.682;23.372;2023-03-16T00:04:25;94349.13;;;3.96;83.36
43711;BME280;29309;42.682;23.372;2023-03-16T00:06:50;94340.78;;;3.94;82.95
43711;BME280;29309;42.682;23.372;2023-03-16T00:09:16;94346.75;;;3.90;82.97
43711;BME280;29309;42.682;23.372;2023-03-16T00:11:41;94347.22;;;3.87;82.84
43711;BME280;29309;42.682;23.372;2023-03-16T00:14:07;94347.22;;;3.87;82.82
43711;BME280;29309;42.682;23.372;2023-03-16T00:16:33;94354.25;;;3.78;82.57
43711;BME280;29309;42.682;23.372;2023-03-16T00:19:00;94362.22;;;3.74;82.95
43711;BME280;29309;42.682;23.372;2023-03-16T00:21:27;94357.31;;;3.73;83.26
43711;BME280;29309;42.682;23.372;2023-03-16T00:23:54;94359.94;;;3.71;83.30
43711;BME280;29309;42.682;23.372;2023-03-16T00:26:20;94360.06;;;3.73;83.38
43711;BME280;29309;42.682;23.372;2023-03-16T00:28:47;94354.47;;;3.71;83.19
43711;BME280;29309;42.682;23.372;2023-03-16T00:31:12;94358.25;;;3.66;83.77
43711;BME280;29309;42.682;23.372;2023-03-16T00:33:40;94349.19;;;3.63;84.07
43711;BME280;29309;42.682;23.372;2023-03-16T00:36:09;94362.81;;;3.61;83.96
43711;BME280;29309;42.682;23.372;2023-03-16T00:38:38;94370.06;;;3.57;84.07
43711;BME280;29309;42.682;23.372;2023-03-16T00:41:05;94374.00;;;3.54;83.77
43711;BME280;29309;42.682;23.372;2023-03-16T00:43:36;94375.38;;;3.43;83.19
43711;BME280;29309;42.682;23.372;2023-03-16T00:46:09;94376.44;;;3.38;83.37
43711;BME280;29309;42.682;23.372;2023-03-16T00:48:36;94381.66;;;3.34;83.81
43711;BME280;29309;42.682;23.372;2023-03-16T00:51:04;94381.66;;;3.34;84.04
43711;BME280;29309;42.682;23.372;2023-03-16T00:53:35;94384.56;;;3.36;84.42
43711;BME280;29309;42.682;23.372;2023-03-16T00:56:04;94385.13;;;3.34;84.70
43711;BME280;29309;42.682;23.372;2023-03-16T00:58:35;94380.81;;;3.31;85.39
43711;BME280;29309;42.682;23.372;2023-03-16T01:03:28;94381.56;;;3.32;85.90
43711;BME280;29309;42.682;23.372;2023-03-16T01:05:53;94373.63;;;3.26;85.42
43711;BME280;29309;42.682;23.372;2023-03-16T01:08:24;94380.31;;;3.23;85.76
43711;BME280;29309;42.682;23.372;2023-03-16T01:10:49;94383.88;;;3.26;85.77
43711;BME280;29309;42.682;23.372;2023-03-16T01:13:15;94380.91;;;3.22;85.75
43711;BME280;29309;42.682;23.372;2023-03-16T01:15:40;94374.72;;;3.21;86.33
43711;BME280;29309;42.682;23.372;2023-03-16T01:18:06;94384.13;;;3.18;86.44
43711;BME280;29309;42.682;23.372;2023-03-16T01:20:31;94386.72;;;3.16;86.79
43711;BME280;29309;42.682;23.372;2023-03-16T01:22:57;94377.59;;;3.02;86.99
43711;BME280;29309;42.682;23.372;2023-03-16T01:25:23;94387.38;;;3.05;86.99
43711;BME280;29309;42.682;23.372;2023-03-16T01:27:48;94384.78;;;3.07;87.31
43711;BME280;29309;42.682;23.372;2023-03-16T01:30:14;94386.06;;;3.06;87.57
43711;BME280;29309;42.682;23.372;2023-03-16T01:32:40;94387.25;;;3.03;86.91
43711;BME280;29309;42.682;23.372;2023-03-16T01:35:06;94378.38;;;2.93;86.84
43711;BME280;29309;42.682;23.372;2023-03-16T01:37:32;94375.50;;;2.91;86.60
43711;BME280;29309;42.682;23.372;2023-03-16T01:39:57;94389.22;;;2.91;86.74
43711;BME280;29309;42.682;23.372;2023-03-16T01:42:23;94388.38;;;2.88;86.29
43711;BME280;29309;42.682;23.372;2023-03-16T01:44:51;94392.53;;;2.89;86.07
43711;BME280;29309;42.682;23.372;2023-03-16T01:47:18;94395.59;;;2.84;85.32
43711;BME280;29309;42.682;23.372;2023-03-16T01:49:44;94398.09;;;2.80;85.29
43711;BME280;29309;42.682;23.372;2023-03-16T01:52:21;94405.91;;;2.74;84.66
43711;BME280;29309;42.682;23.372;2023-03-16T01:57:20;94411.41;;;2.74;84.35
43711;BME280;29309;42.682;23.372;2023-03-16T01:59:56;94407.34;;;2.75;84.81
43711;BME280;29309;42.682;23.372;2023-03-16T02:02:32;94408.50;;;2.72;84.90
43711;BME280;29309;42.682;23.372;2023-03-16T02:05:09;94410.66;;;2.73;85.16
43711;BME280;29309;42.682;23.372;2023-03-16T02:07:42;94420.06;;;2.70;84.93
43711;BME280;29309;42.682;23.372;2023-03-16T02:10:09;94429.91;;;2.64;85.37
43711;BME280;29309;42.682;23.372;2023-03-16T02:12:36;94425.00;;;2.62;85.42
43711;BME280;29309;42.682;23.372;2023-03-16T02:15:02;94423.72;;;2.63;85.80
43711;BME280;29309;42.682;23.372;2023-03-16T02:17:30;94436.69;;;2.63;86.08
43711;BME280;29309;42.682;23.372;2023-03-16T02:20:03;94427.03;;;2.62;85.86
43711;BME280;29309;42.682;23.372;2023-03-16T02:22:41;94432.78;;;2.66;86.23
43711;BME280;29309;42.682;23.372;2023-03-16T02:25:08;94434.06;;;2.65;85.67
43711;BME280;29309;42.682;23.372;2023-03-16T02:30:20;94448.38;;;2.63;86.45
43711;BME280;29309;42.682;23.372;2023-03-16T02:32:48;94447.66;;;2.63;86.24
43711;BME280;29309;42.682;23.372;2023-03-16T02:35:16;94451.41;;;2.58;86.64
43711;BME280;29309;42.682;23.372;2023-03-16T02:37:42;94453.31;;;2.55;86.99
43711;BME280;29309;42.682;23.372;2023-03-16T02:42:42;94451.72;;;2.52;87.32
43711;BME280;29309;42.682;23.372;2023-03-16T02:45:09;94453.75;;;2.52;87.67
43711;BME280;29309;42.682;23.372;2023-03-16T02:47:37;94450.88;;;2.50;88.17
43711;BME280;29309;42.682;23.372;2023-03-16T02:50:05;94452.31;;;2.51;88.40
43711;BME280;29309;42.682;23.372;2023-03-16T02:52:35;94461.25;;;2.51;88.75
43711;BME280;29309;42.682;23.372;2023-03-16T02:55:03;94456.09;;;2.45;89.25
43711;BME280;29309;42.682;23.372;2023-03-16T02:57:29;94464.75;;;2.42;89.00
43711;BME280;29309;42.682;23.372;2023-03-16T02:59:55;94459.00;;;2.38;89.68
43711;BME280;29309;42.682;23.372;2023-03-16T03:02:21;94458.28;;;2.37;89.63
43711;BME280;29309;42.682;23.372;2023-03-16T03:04:46;94459.56;;;2.36;89.93
43711;BME280;29309;42.682;23.372;2023-03-16T03:07:12;94469.97;;;2.38;90.13
43711;BME280;29309;42.682;23.372;2023-03-16T03:09:41;94472.41;;;2.34;90.06
43711;BME280;29309;42.682;23.372;2023-03-16T03:12:10;94464.94;;;2.25;90.45
43711;BME280;29309;42.682;23.372;2023-03-16T03:14:36;94474.91;;;2.20;90.37
43711;BME280;29309;42.682;23.372;2023-03-16T03:17:05;94482.53;;;2.22;90.77
43711;BME280;29309;42.682;23.372;2023-03-16T03:19:34;94473.59;;;2.21;90.94
43711;BME280;29309;42.682;23.372;2023-03-16T03:22:00;94484.41;;;2.19;90.87
43711;BME280;29309;42.682;23.372;2023-03-16T03:24:29;94479.38;;;2.16;90.73
43711;BME280;29309;42.682;23.372;2023-03-16T03:26:54;94475.81;;;2.13;91.02
43711;BME280;29309;42.682;23.372;2023-03-16T03:29:20;94481.84;;;2.12;91.10
43711;BME280;29309;42.682;23.372;2023-03-16T03:31:45;94488.47;;;1.99;91.05
43711;BME280;29309;42.682;23.372;2023-03-16T03:34:11;94487.50;;;1.94;91.01
43711;BME280;29309;42.682;23.372;2023-03-16T03:36:36;94488.50;;;1.89;91.29
43711;BME280;29309;42.682;23.372;2023-03-16T03:39:02;94498.28;;;1.92;91.19
43711;BME280;29309;42.682;23.372;2023-03-16T03:41:30;94495.13;;;1.86;91.27
43711;BME280;29309;42.682;23.372;2023-03-16T03:43:57;94497.16;;;1.86;91.54
43711;BME280;29309;42.682;23.372;2023-03-16T03:46:23;94500.31;;;1.82;91.45
43711;BME280;29309;42.682;23.372;2023-03-16T03:48:49;94497.59;;;1.82;91.75
43711;BME280;29309;42.682;23.372;2023-03-16T03:51:15;94512.56;;;1.81;92.07
43711;BME280;29309;42.682;23.372;2023-03-16T03:53:40;94518.47;;;1.78;91.56
43711;BME280;29309;42.682;23.372;2023-03-16T03:56:06;94527.56;;;1.80;91.90
43711;BME280;29309;42.682;23.372;2023-03-16T03:58:31;94526.25;;;1.81;92.00
43711;BME280;29309;42.682;23.372;2023-03-16T04:00:57;94524.38;;;1.84;91.89
43711;BME280;29309;42.682;23.372;2023-03-16T04:03:22;94533.75;;;1.81;91.39
43711;BME280;29309;42.682;23.372;2023-03-16T04:05:47;94522.66;;;1.79;91.37
43711;BME280;29309;42.682;23.372;2023-03-16T04:08:13;94526.25;;;1.81;91.57
43711;BME280;29309;42.682;23.372;2023-03-16T04:10:38;94522.81;;;1.81;91.70
43711;BME280;29309;42.682;23.372;2023-03-16T04:13:04;94527.69;;;1.82;91.55
43711;BME280;29309;42.682;23.372;2023-03-16T04:15:29;94536.34;;;1.79;91.70
43711;BME280;29309;42.682;23.372;2023-03-16T04:17:57;94531.41;;;1.77;91.25
43711;BME280;29309;42.682;23.372;2023-03-16T04:20:23;94532.16;;;1.78;91.50
43711;BME280;29309;42.682;23.372;2023-03-16T04:22:48;94530.28;;;1.80;91.53
43711;BME280;29309;42.682;23.372;2023-03-16T04:25:16;94537.63;;;1.78;91.65
43711;BME280;29309;42.682;23.372;2023-03-16T04:27:42;94541.06;;;1.78;91.41
43711;BME280;29309;42.682;23.372;2023-03-16T04:30:12;94541.50;;;1.75;91.32
43711;BME280;29309;42.682;23.372;2023-03-16T04:32:38;94556.78;;;1.78;91.36
43711;BME280;29309;42.682;23.372;2023-03-16T04:35:04;94551.16;;;1.76;91.18
43711;BME280;29309;42.682;23.372;2023-03-16T04:37:30;94550.75;;;1.70;91.53
43711;BME280;29309;42.682;23.372;2023-03-16T04:39:56;94561.94;;;1.74;91.63
43711;BME280;29309;42.682;23.372;2023-03-16T04:42:21;94559.66;;;1.70;92.01
43711;BME280;29309;42.682;23.372;2023-03-16T04:44:47;94564.13;;;1.75;91.71
43711;BME280;29309;42.682;23.372;2023-03-16T04:47:14;94567.72;;;1.78;91.91
43711;BME280;29309;42.682;23.372;2023-03-16T04:49:41;94574.63;;;1.79;91.45
43711;BME280;29309;42.682;23.372;2023-03-16T04:52:07;94577.53;;;1.81;91.33
43711;BME280;29309;42.682;23.372;2023-03-16T04:54:33;94581.56;;;1.80;91.72
43711;BME280;29309;42.682;23.372;2023-03-16T04:56:59;94590.63;;;1.82;91.16
43711;BME280;29309;42.682;23.372;2023-03-16T04:59:25;94586.31;;;1.79;91.07
43711;BME280;29309;42.682;23.372;2023-03-16T05:01:51;94589.31;;;1.74;90.39
43711;BME280;29309;42.682;23.372;2023-03-16T05:04:17;94592.03;;;1.74;90.31
43711;BME280;29309;42.682;23.372;2023-03-16T05:06:43;94595.94;;;1.71;90.67
43711;BME280;29309;42.682;23.372;2023-03-16T05:09:08;94600.97;;;1.74;90.80
43711;BME280;29309;42.682;23.372;2023-03-16T05:11:34;94592.22;;;1.76;90.32
43711;BME280;29309;42.682;23.372;2023-03-16T05:14:00;94596.81;;;1.73;90.77
43711;BME280;29309;42.682;23.372;2023-03-16T05:16:29;94606.44;;;1.74;90.53
43711;BME280;29309;42.682;23.372;2023-03-16T05:18:59;94610.06;;;1.77;90.52
43711;BME280;29309;42.682;23.372;2023-03-16T05:21:25;94606.44;;;1.74;89.84
43711;BME280;29309;42.682;23.372;2023-03-16T05:23:50;94612.81;;;1.77;89.49
43711;BME280;29309;42.682;23.372;2023-03-16T05:26:16;94611.94;;;1.74;89.44
43711;BME280;29309;42.682;23.372;2023-03-16T05:28:43;94613.25;;;1.73;88.82
43711;BME280;29309;42.682;23.372;2023-03-16T05:31:08;94627.78;;;1.76;88.74
43711;BME280;29309;42.682;23.372;2023-03-16T05:33:34;94625.03;;;1.76;88.68
43711;BME280;29309;42.682;23.372;2023-03-16T05:35:59;94630.53;;;1.76;88.83
43711;BME280;29309;42.682;23.372;2023-03-16T05:38:27;94629.38;;;1.79;89.00
43711;BME280;29309;42.682;23.372;2023-03-16T05:40:52;94629.38;;;1.79;88.95
43711;BME280;29309;42.682;23.372;2023-03-16T05:43:19;94624.63;;;1.79;89.07
43711;BME280;29309;42.682;23.372;2023-03-16T05:45:46;94639.03;;;1.80;88.87
43711;BME280;29309;42.682;23.372;2023-03-16T05:48:12;94638.59;;;1.83;88.62
43711;BME280;29309;42.682;23.372;2023-03-16T05:50:39;94647.53;;;1.84;88.71
43711;BME280;29309;42.682;23.372;2023-03-16T05:53:05;94644.94;;;1.86;88.65
43711;BME280;29309;42.682;23.372;2023-03-16T05:55:30;94649.13;;;1.87;88.65
43711;BME280;29309;42.682;23.372;2023-03-16T05:57:55;94650.69;;;1.90;88.60
43711;BME280;29309;42.682;23.372;2023-03-16T06:00:21;94650.56;;;1.88;88.70
43711;BME280;29309;42.682;23.372;2023-03-16T06:02:49;94653.56;;;1.92;89.51
43711;BME280;29309;42.682;23.372;2023-03-16T06:05:16;94650.28;;;1.93;89.62
43711;BME280;29309;42.682;23.372;2023-03-16T06:07:42;94654.44;;;1.94;89.46
43711;BME280;29309;42.682;23.372;2023-03-16T06:10:08;94661.94;;;1.94;89.45
43711;BME280;29309;42.682;23.372;2023-03-16T06:12:33;94660.91;;;1.89;89.26
43711;BME280;29309;42.682;23.372;2023-03-16T06:15:00;94657.63;;;1.91;89.66
43711;BME280;29309;42.682;23.372;2023-03-16T06:17:25;94674.34;;;1.95;89.46
43711;BME280;29309;42.682;23.372;2023-03-16T06:19:51;94673.31;;;2.00;89.75
43711;BME280;29309;42.682;23.372;2023-03-16T06:22:16;94678.66;;;1.98;89.62
43711;BME280;29309;42.682;23.372;2023-03-16T06:24:43;94677.09;;;2.05;89.47
43711;BME280;29309;42.682;23.372;2023-03-16T06:27:08;94685.72;;;2.01;88.91
43711;BME280;29309;42.682;23.372;2023-03-16T06:29:34;94685.28;;;2.05;89.09
43711;BME280;29309;42.682;23.372;2023-03-16T06:31:59;94682.84;;;2.09;89.29
43711;BME280;29309;42.682;23.372;2023-03-16T06:34:25;94691.66;;;2.17;89.13
43711;BME280;29309;42.682;23.372;2023-03-16T06:36:50;94695.38;;;2.21;88.67
43711;BME280;29309;42.682;23.372;2023-03-16T06:39:16;94699.31;;;2.28;88.43
43711;BME280;29309;42.682;23.372;2023-03-16T06:41:41;94699.31;;;2.28;86.97
43711;BME280;29309;42.682;23.372;2023-03-16T06:44:09;94708.81;;;2.27;87.04
43711;BME280;29309;42.682;23.372;2023-03-16T06:46:34;94716.13;;;2.24;87.01
43711;BME280;29309;42.682;23.372;2023-03-16T06:49:00;94705.78;;;2.32;86.47
43711;BME280;29309;42.682;23.372;2023-03-16T06:51:26;94709.97;;;2.33;86.52
43711;BME280;29309;42.682;23.372;2023-03-16T06:53:51;94723.94;;;2.37;85.58
43711;BME280;29309;42.682;23.372;2023-03-16T06:56:17;94720.63;;;2.39;85.64
43711;BME280;29309;42.682;23.372;2023-03-16T06:58:42;94726.09;;;2.39;84.98
43711;BME280;29309;42.682;23.372;2023-03-16T07:01:08;94726.53;;;2.35;84.84
43711;BME280;29309;42.682;23.372;2023-03-16T07:03:33;94740.09;;;2.33;84.10
43711;BME280;29309;42.682;23.372;2023-03-16T07:05:59;94731.75;;;2.31;84.22
43711;BME280;29309;42.682;23.372;2023-03-16T07:08:24;94744.13;;;2.32;84.67
43711;BME280;29309;42.682;23.372;2023-03-16T07:10:50;94745.69;;;2.35;84.57
43711;BME280;29309;42.682;23.372;2023-03-16T07:13:16;94749.59;;;2.32;84.64
43711;BME280;29309;42.682;23.372;2023-03-16T07:15:41;94749.88;;;2.36;84.99
43711;BME280;29309;42.682;23.372;2023-03-16T07:18:09;94747.31;;;2.38;85.92
43711;BME280;29309;42.682;23.372;2023-03-16T07:20:37;94748.63;;;2.57;88.38
43711;BME280;29309;42.682;23.372;2023-03-16T07:23:02;94755.22;;;2.54;86.83
43711;BME280;29309;42.682;23.372;2023-03-16T07:25:29;94755.81;;;2.52;85.94
43711;BME280;29309;42.682;23.372;2023-03-16T07:27:55;94760.88;;;2.56;86.25
43711;BME280;29309;42.682;23.372;2023-03-16T07:30:21;94756.84;;;2.57;85.47
43711;BME280;29309;42.682;23.372;2023-03-16T07:32:46;94757.53;;;2.57;85.55
43711;BME280;29309;42.682;23.372;2023-03-16T07:35:12;94768.50;;;2.57;85.24
43711;BME280;29309;42.682;23.372;2023-03-16T07:37:37;94766.78;;;2.62;85.94
43711;BME280;29309;42.682;23.372;2023-03-16T07:40:03;94774.56;;;2.65;85.83
43711;BME280;29309;42.682;23.372;2023-03-16T07:42:31;94772.69;;;2.68;85.19
43711;BME280;29309;42.682;23.372;2023-03-16T07:44:56;94777.03;;;2.71;85.37
43711;BME280;29309;42.682;23.372;2023-03-16T07:47:21;94772.97;;;2.72;85.10
43711;BME280;29309;42.682;23.372;2023-03-16T07:49:48;94782.09;;;2.74;84.65
43711;BME280;29309;42.682;23.372;2023-03-16T07:52:14;94781.94;;;2.72;83.92
43711;BME280;29309;42.682;23.372;2023-03-16T07:54:40;94786.97;;;2.76;84.03
43711;BME280;29309;42.682;23.372;2023-03-16T07:57:06;94782.81;;;2.75;83.14
43711;BME280;29309;42.682;23.372;2023-03-16T07:59:32;94776.59;;;2.74;82.82
43711;BME280;29309;42.682;23.372;2023-03-16T08:01:57;94780.63;;;2.73;82.01
43711;BME280;29309;42.682;23.372;2023-03-16T08:04:23;94785.25;;;2.80;81.95
43711;BME280;29309;42.682;23.372;2023-03-16T08:06:49;94784.69;;;2.91;82.12
43711;BME280;29309;42.682;23.372;2023-03-16T08:09:17;94788.97;;;3.04;82.71
43711;BME280;29309;42.682;23.372;2023-03-16T08:11:43;94794.63;;;3.06;81.27
43711;BME280;29309;42.682;23.372;2023-03-16T08:14:08;94787.53;;;3.13;81.02
43711;BME280;29309;42.682;23.372;2023-03-16T08:16:34;94788.97;;;3.23;80.61
43711;BME280;29309;42.682;23.372;2023-03-16T08:18:59;94799.06;;;3.30;80.96
43711;BME280;29309;42.682;23.372;2023-03-16T08:21:25;94813.06;;;3.34;80.09
43711;BME280;29309;42.682;23.372;2023-03-16T08:23:52;94807.16;;;3.38;79.80
43711;BME280;29309;42.682;23.372;2023-03-16T08:26:19;94814.94;;;3.41;79.75
43711;BME280;29309;42.682;23.372;2023-03-16T08:28:45;94812.34;;;3.34;79.65
43711;BME280;29309;42.682;23.372;2023-03-16T08:31:14;94813.78;;;3.35;79.49
43711;BME280;29309;42.682;23.372;2023-03-16T08:33:44;94816.22;;;3.40;79.84
43711;BME280;29309;42.682;23.372;2023-03-16T08:36:13;94813.47;;;3.40;80.01
43711;BME280;29309;42.682;23.372;2023-03-16T08:38:40;94816.22;;;3.40;79.80
43711;BME280;29309;42.682;23.372;2023-03-16T08:41:06;94822.00;;;3.44;79.99
43711;BME280;29309;42.682;23.372;2023-03-16T08:43:32;94811.03;;;3.44;79.63
43711;BME280;29309;42.682;23.372;2023-03-16T08:45:58;94825.19;;;3.51;79.90
43711;BME280;29309;42.682;23.372;2023-03-16T08:48:24;94829.50;;;3.54;79.71
43711;BME280;29309;42.682;23.372;2023-03-16T08:50:49;94831.09;;;3.57;79.13
43711;BME280;29309;42.682;23.372;2023-03-16T08:53:16;94832.81;;;3.62;78.98
43711;BME280;29309;42.682;23.372;2023-03-16T08:55:43;94841.06;;;3.62;77.91
43711;BME280;29309;42.682;23.372;2023-03-16T08:58:10;94834.41;;;3.65;77.30
43711;BME280;29309;42.682;23.372;2023-03-16T09:00:37;94833.94;;;3.68;76.61
43711;BME280;29309;42.682;23.372;2023-03-16T09:03:03;94836.25;;;3.72;76.62
43711;BME280;29309;42.682;23.372;2023-03-16T09:05:29;94844.06;;;3.75;76.30
43711;BME280;29309;42.682;23.372;2023-03-16T09:07:55;94843.44;;;3.77;76.10
43711;BME280;29309;42.682;23.372;2023-03-16T09:10:21;94847.81;;;3.70;75.43
43711;BME280;29309;42.682;23.372;2023-03-16T09:12:50;94856.63;;;3.69;74.65
43711;BME280;29309;42.682;23.372;2023-03-16T09:15:17;94852.56;;;3.70;74.92
43711;BME280;29309;42.682;23.372;2023-03-16T09:17:44;94847.81;;;3.70;74.74
43711;BME280;29309;42.682;23.372;2023-03-16T09:20:11;94851.72;;;3.67;74.17
43711;BME280;29309;42.682;23.372;2023-03-16T09:22:37;94859.09;;;3.65;74.74
43711;BME280;29309;42.682;23.372;2023-03-16T09:25:04;94854.19;;;3.63;75.53
43711;BME280;29309;42.682;23.372;2023-03-16T09:27:34;94853.75;;;3.67;74.07
43711;BME280;29309;42.682;23.372;2023-03-16T09:30:04;94850.28;;;3.66;74.21
43711;BME280;29309;42.682;23.372;2023-03-16T09:32:29;94850.59;;;3.61;72.90
43711;BME280;29309;42.682;23.372;2023-03-16T09:34:55;94854.06;;;3.61;73.14
43711;BME280;29309;42.682;23.372;2023-03-16T09:37:21;94855.63;;;3.64;73.23
43711;BME280;29309;42.682;23.372;2023-03-16T09:39:48;94850.13;;;3.64;74.07
43711;BME280;29309;42.682;23.372;2023-03-16T09:42:26;94859.22;;;3.67;74.35
43711;BME280;29309;42.682;23.372;2023-03-16T09:47:46;94854.47;;;3.67;74.80
43711;BME280;29309;42.682;23.372;2023-03-16T09:53:25;94858.78;;;3.70;74.72
43711;BME280;29309;42.682;23.372;2023-03-16T09:58:24;94859.78;;;3.75;74.24
43711;BME280;29309;42.682;23.372;2023-03-16T10:04:15;94860.50;;;3.85;74.70
43711;BME280;29309;42.682;23.372;2023-03-16T10:09:36;94873.66;;;3.86;75.97
43711;BME280;29309;42.682;23.372;2023-03-16T10:12:06;94870.03;;;3.84;75.60
43711;BME280;29309;42.682;23.372;2023-03-16T10:15:05;94873.22;;;3.80;75.96
43711;BME280;29309;42.682;23.372;2023-03-16T10:17:51;94872.06;;;3.74;76.05
43711;BME280;29309;42.682;23.372;2023-03-16T10:20:20;94867.88;;;3.73;76.50
43711;BME280;29309;42.682;23.372;2023-03-16T10:22:48;94857.63;;;3.73;76.41
43711;BME280;29309;42.682;23.372;2023-03-16T10:25:38;94862.66;;;3.77;75.93
43711;BME280;29309;42.682;23.372;2023-03-16T10:28:11;94864.25;;;3.80;75.16
43711;BME280;29309;42.682;23.372;2023-03-16T10:30:39;94873.94;;;3.81;75.76
43711;BME280;29309;42.682;23.372;2023-03-16T10:33:27;94866.13;;;3.87;74.58
43711;BME280;29309;42.682;23.372;2023-03-16T10:36:03;94867.44;;;3.86;73.29
43711;BME280;29309;42.682;23.372;2023-03-16T10:38:38;94865.69;;;3.90;73.30
43711;BME280;29309;42.682;23.372;2023-03-16T10:41:23;94863.91;;;3.95;73.07
43711;BME280;29309;42.682;23.372;2023-03-16T10:43:59;94856.81;;;4.02;73.47
43711;BME280;29309;42.682;23.372;2023-03-16T10:46:36;94868.69;;;4.04;73.26
43711;BME280;29309;42.682;23.372;2023-03-16T10:49:03;94862.00;;;4.07;73.23
43711;BME280;29309;42.682;23.372;2023-03-16T10:51:36;94874.13;;;4.14;73.74
43711;BME280;29309;42.682;23.372;2023-03-16T10:54:15;94871.22;;;4.21;73.96
43711;BME280;29309;42.682;23.372;2023-03-16T10:56:41;94872.06;;;4.24;73.08
43711;BME280;29309;42.682;23.372;2023-03-16T10:59:34;94876.38;;;4.27;73.11
43711;BME280;29309;42.682;23.372;2023-03-16T11:02:13;94875.09;;;4.28;72.63
43711;BME280;29309;42.682;23.372;2023-03-16T11:04:39;94872.22;;;4.26;72.28
43711;BME280;29309;42.682;23.372;2023-03-16T11:07:06;94876.97;;;4.25;72.21
43711;BME280;29309;42.682;23.372;2023-03-16T11:09:39;94867.91;;;4.23;72.13
43711;BME280;29309;42.682;23.372;2023-03-16T11:12:24;94872.22;;;4.26;72.32
43711;BME280;29309;42.682;23.372;2023-03-16T11:14:51;94866.28;;;4.29;72.09
43711;BME280;29309;42.682;23.372;2023-03-16T11:17:27;94867.91;;;4.23;71.50
43711;BME280;29309;42.682;23.372;2023-03-16T11:19:59;94874.25;;;4.25;71.34
43711;BME280;29309;42.682;23.372;2023-03-16T11:22:30;94873.38;;;4.23;70.83
43711;BME280;29309;42.682;23.372;2023-03-16T11:25:13;94867.47;;;4.17;70.37
43711;BME280;29309;42.682;23.372;2023-03-16T11:28:37;94864.53;;;4.24;71.12
43711;BME280;29309;42.682;23.372;2023-03-16T11:33:46;94876.22;;;4.34;70.52
43711;BME280;29309;42.682;23.372;2023-03-16T11:36:25;94876.22;;;4.34;70.54
43711;BME280;29309;42.682;23.372;2023-03-16T11:45:00;94878.84;;;4.32;69.67
43711;BME280;29309;42.682;23.372;2023-03-16T11:53:23;94878.56;;;4.28;69.95
43711;BME280;29309;42.682;23.372;2023-03-16T12:01:17;94888.88;;;4.18;70.30
43711;BME280;29309;42.682;23.372;2023-03-16T12:04:02;94886.25;;;4.20;70.33
43711;BME280;29309;42.682;23.372;2023-03-16T12:12:38;94890.63;;;4.14;70.37
43711;BME280;29309;42.682;23.372;2023-03-16T12:21:01;94894.66;;;4.13;70.88
43711;BME280;29309;42.682;23.372;2023-03-16T12:23:32;94893.81;;;4.10;70.89
43711;BME280;29309;42.682;23.372;2023-03-16T12:25:59;94901.63;;;4.04;70.76
43711;BME280;29309;42.682;23.372;2023-03-16T12:28:27;94900.78;;;3.92;71.37
43711;BME280;29309;42.682;23.372;2023-03-16T12:31:15;94903.69;;;3.94;72.01
43711;BME280;29309;42.682;23.372;2023-03-16T12:36:59;94903.09;;;4.05;73.23
43711;BME280;29309;42.682;23.372;2023-03-16T12:49:54;94917.88;;;3.90;70.80
43711;BME280;29309;42.682;23.372;2023-03-16T12:52:38;94915.28;;;3.83;71.35
43711;BME280;29309;42.682;23.372;2023-03-16T12:57:39;94928.44;;;3.75;72.58
43711;BME280;29309;42.682;23.372;2023-03-16T13:00:06;94928.13;;;3.71;73.49
43711;BME280;29309;42.682;23.372;2023-03-16T13:02:36;94929.75;;;3.64;74.73
43711;BME280;29309;42.682;23.372;2023-03-16T13:05:13;94918.63;;;3.53;75.23
43711;BME280;29309;42.682;23.372;2023-03-16T13:07:49;94935.22;;;3.55;76.29
43711;BME280;29309;42.682;23.372;2023-03-16T13:10:16;94946.34;;;3.57;76.84
43711;BME280;29309;42.682;23.372;2023-03-16T13:12:45;94931.31;;;3.38;77.75
43711;BME280;29309;42.682;23.372;2023-03-16T13:17:45;94944.47;;;3.40;79.18
43711;BME280;29309;42.682;23.372;2023-03-16T13:22:45;94939.25;;;3.34;80.68
43711;BME280;29309;42.682;23.372;2023-03-16T13:25:33;94938.09;;;3.37;80.92
43711;BME280;29309;42.682;23.372;2023-03-16T13:28:01;94947.78;;;3.38;81.57
43711;BME280;29309;42.682;23.372;2023-03-16T13:30:29;94952.00;;;3.39;81.76
43711;BME280;29309;42.682;23.372;2023-03-16T13:33:04;94950.38;;;3.36;82.03
43711;BME280;29309;42.682;23.372;2023-03-16T13:35:36;94948.94;;;3.35;82.24
43711;BME280;29309;42.682;23.372;2023-03-16T13:38:04;94949.81;;;3.38;82.52
43711;BME280;29309;42.682;23.372;2023-03-16T13:40:30;94952.84;;;3.42;82.92
43711;BME280;29309;42.682;23.372;2023-03-16T13:42:57;94953.69;;;3.44;83.49
43711;BME280;29309;42.682;23.372;2023-03-16T13:45:36;94956.19;;;3.50;83.34
43711;BME280;29309;42.682;23.372;2023-03-16T13:48:03;94954.28;;;3.53;83.43
43711;BME280;29309;42.682;23.372;2023-03-16T13:50:33;94962.94;;;3.59;83.97
43711;BME280;29309;42.682;23.372;2023-03-16T13:53:02;94955.59;;;3.61;83.91
43711;BME280;29309;42.682;23.372;2023-03-16T13:55:33;94964.56;;;3.62;83.31
43711;BME280;29309;42.682;23.372;2023-03-16T13:58:00;94960.81;;;3.57;82.41
43711;BME280;29309;42.682;23.372;2023-03-16T14:00:30;94955.88;;;3.56;82.48
43711;BME280;29309;42.682;23.372;2023-03-16T14:02:59;94957.59;;;3.51;81.80
43711;BME280;29309;42.682;23.372;2023-03-16T14:05:32;94964.53;;;3.52;81.43
43711;BME280;29309;42.682;23.372;2023-03-16T14:07:59;94971.91;;;3.50;81.43
43711;BME280;29309;42.682;23.372;2023-03-16T14:10:30;94974.78;;;3.52;81.72
43711;BME280;29309;42.682;23.372;2023-03-16T14:13:09;94969.47;;;3.54;81.58
43711;BME280;29309;42.682;23.372;2023-03-16T14:15:36;94980.56;;;3.56;81.70
43711;BME280;29309;42.682;23.372;2023-03-16T14:18:35;94973.19;;;3.58;81.63
43711;BME280;29309;42.682;23.372;2023-03-16T14:21:11;94979.56;;;3.51;80.16
43711;BME280;29309;42.682;23.372;2023-03-16T14:23:44;94977.97;;;3.48;80.27
43711;BME280;29309;42.682;23.372;2023-03-16T14:26:14;94980.41;;;3.44;79.69